createdAt,value
2023-11-27T00:01:25.226Z,3.00
2023-11-27T00:09:27.414Z,11.60
2023-11-27T00:14:10.533Z,5.00
2023-11-27T00:18:34.118Z,6.70
2023-11-27T00:23:17.201Z,9.30
2023-11-27T00:27:44.101Z,5.50
2023-11-27T00:31:58.449Z,5.60
2023-11-27T00:36:42.136Z,5.90
2023-11-27T00:44:00.435Z,5.90
2023-11-27T00:48:29.354Z,5.70
2023-11-27T00:53:14.014Z,6.60
2023-11-27T00:57:38.149Z,5.10
2023-11-27T01:02:05.149Z,5.10
2023-11-27T01:06:38.915Z,4.40
2023-11-27T01:11:24.107Z,3.50
2023-11-27T01:15:48.439Z,5.20
2023-11-27T01:19:54.560Z,4.90
2023-11-27T01:24:22.813Z,2.60
2023-11-27T01:28:51.845Z,4.80
2023-11-27T01:33:36.975Z,5.60
2023-11-27T01:38:21.606Z,4.20
2023-11-27T01:43:03.030Z,6.20
2023-11-27T01:47:50.973Z,4.90
2023-11-27T01:52:25.091Z,4.90
2023-11-27T01:57:06.948Z,4.40
2023-11-27T02:01:40.323Z,4.00
2023-11-27T02:06:01.381Z,4.00
2023-11-27T02:10:08.313Z,4.70
2023-11-27T02:14:34.522Z,3.20
2023-11-27T02:19:14.260Z,5.30
2023-11-27T02:24:01.921Z,5.50
2023-11-27T02:28:27.888Z,3.20
2023-11-27T02:33:07.419Z,4.30
2023-11-27T02:37:51.863Z,5.00
2023-11-27T02:42:00.232Z,4.00
2023-11-27T02:46:27.386Z,5.60
2023-11-27T02:51:03.282Z,5.30
2023-11-27T02:55:15.891Z,3.40
2023-11-27T02:59:36.940Z,5.40
2023-11-27T03:03:45.083Z,4.10
2023-11-27T03:08:24.617Z,4.30
2023-11-27T03:13:04.537Z,2.60
2023-11-27T03:17:44.197Z,3.60
2023-11-27T03:22:24.435Z,3.00
2023-11-27T03:26:56.951Z,4.50
2023-11-27T03:31:11.985Z,3.80
2023-11-27T03:39:03.665Z,5.80
2023-11-27T03:43:49.432Z,3.20
2023-11-27T03:48:14.983Z,3.70
2023-11-27T03:52:46.138Z,3.70
2023-11-27T03:57:25.816Z,2.90
2023-11-27T04:01:35.412Z,4.20
2023-11-27T04:05:59.783Z,2.80
2023-11-27T04:10:33.082Z,3.00
2023-11-27T04:15:17.781Z,4.20
2023-11-27T04:19:50.114Z,4.50
2023-11-27T04:24:34.898Z,3.60
2023-11-27T04:28:55.462Z,4.30
2023-11-27T04:37:40.074Z,2.40
2023-11-27T04:41:56.011Z,2.70
2023-11-27T04:46:41.150Z,3.90
2023-11-27T04:51:21.206Z,4.10
2023-11-27T04:55:42.779Z,4.20
2023-11-27T04:59:50.629Z,3.30
2023-11-27T05:04:31.861Z,4.90
2023-11-27T05:09:02.885Z,8.20
2023-11-27T05:13:42.413Z,6.50
2023-11-27T05:18:07.928Z,6.60
2023-11-27T05:22:52.020Z,3.60
2023-11-27T05:26:58.907Z,6.10
2023-11-27T05:31:17.149Z,9.40
2023-11-27T05:35:22.298Z,6.20
2023-11-27T05:39:49.873Z,9.40
2023-11-27T05:43:57.528Z,4.50
2023-11-27T05:48:42.527Z,6.80
2023-11-27T05:53:10.690Z,10.00
2023-11-27T05:57:34.841Z,6.20
2023-11-27T06:02:16.137Z,8.00
2023-11-27T06:06:23.393Z,9.00
2023-11-27T06:11:07.909Z,7.10
2023-11-27T06:15:39.534Z,6.80
2023-11-27T06:19:36.911Z,7.40
2023-11-27T06:23:40.890Z,7.70
2023-11-27T06:28:26.396Z,8.30
2023-11-27T06:33:03.238Z,4.30
2023-11-27T06:37:07.872Z,8.90
2023-11-27T06:41:32.165Z,12.20
2023-11-27T06:46:02.291Z,4.90
2023-11-27T06:50:09.850Z,8.30
2023-11-27T06:54:17.693Z,12.60
2023-11-27T06:58:50.426Z,6.40
2023-11-27T07:03:15.568Z,11.40
2023-11-27T07:07:56.583Z,10.40
2023-11-27T07:12:21.546Z,3.60
2023-11-27T07:16:46.274Z,8.70
2023-11-27T07:24:03.524Z,12.40
2023-11-27T07:28:34.994Z,9.40
2023-11-27T07:32:51.814Z,11.70
2023-11-27T07:37:36.675Z,7.90
2023-11-27T07:42:01.393Z,10.40
2023-11-27T07:46:31.364Z,8.00
2023-11-27T07:50:55.918Z,15.20
2023-11-27T07:55:24.047Z,8.90
2023-11-27T07:59:44.589Z,11.80
2023-11-27T08:04:16.691Z,6.30
2023-11-27T08:08:44.768Z,9.90
2023-11-27T08:13:36.123Z,14.00
2023-11-27T08:18:02.575Z,16.40
2023-11-27T08:22:46.980Z,14.70
2023-11-27T08:27:14.855Z,13.20
2023-11-27T08:31:29.229Z,8.70
2023-11-27T08:35:53.746Z,13.80
2023-11-27T08:40:22.834Z,16.80
2023-11-27T08:45:03.488Z,17.40
2023-11-27T08:49:16.601Z,13.00
2023-11-27T08:53:30.387Z,14.00
2023-11-27T08:58:15.915Z,27.20
2023-11-27T09:03:02.662Z,26.90
2023-11-27T09:07:30.088Z,90.00
2023-11-27T09:11:53.949Z,63.00
2023-11-27T09:16:20.820Z,26.00
2023-11-27T09:20:53.263Z,18.00
2023-11-27T09:25:21.463Z,36.00
2023-11-27T09:29:27.800Z,14.40
2023-11-27T09:38:05.158Z,12.20
2023-11-27T09:42:13.356Z,9.00
2023-11-27T09:46:38.827Z,12.00
2023-11-27T09:51:18.739Z,12.90
2023-11-27T09:56:02.926Z,11.70
2023-11-27T10:00:11.048Z,14.20
2023-11-27T10:04:17.688Z,14.20
2023-11-27T10:08:23.778Z,14.10
2023-11-27T10:12:41.375Z,9.90
2023-11-27T10:17:10.706Z,18.30
2023-11-27T10:21:44.709Z,18.20
2023-11-27T10:26:08.970Z,14.50
2023-11-27T10:30:59.341Z,14.50
2023-11-27T10:35:20.052Z,15.90
2023-11-27T10:40:05.723Z,15.20
2023-11-27T10:44:58.603Z,14.20
2023-11-27T10:49:20.539Z,12.50
2023-11-27T10:54:04.605Z,14.90
2023-11-27T10:58:26.880Z,11.50
2023-11-27T11:02:37.987Z,11.60
2023-11-27T11:07:10.550Z,12.40
2023-11-27T11:11:18.065Z,15.80
2023-11-27T11:15:30.704Z,17.40
2023-11-27T11:20:02.280Z,23.30
2023-11-27T11:25:04.987Z,22.80
2023-11-27T11:29:52.010Z,20.10
2023-11-27T11:34:22.051Z,23.80
2023-11-27T11:38:56.118Z,20.20
2023-11-27T11:43:08.097Z,23.30
2023-11-27T11:47:21.772Z,24.40
2023-11-27T11:52:13.608Z,26.90
2023-11-27T11:56:30.498Z,25.50
2023-11-27T12:00:35.467Z,22.80
2023-11-27T12:05:00.569Z,23.10
2023-11-27T12:09:28.966Z,17.50
2023-11-27T12:13:58.747Z,21.80
2023-11-27T12:18:50.146Z,24.50
2023-11-27T12:23:18.856Z,23.90
2023-11-27T12:27:54.065Z,25.60
2023-11-27T12:32:18.642Z,22.20
2023-11-27T12:37:02.674Z,19.40
2023-11-27T12:41:42.328Z,19.80
2023-11-27T12:45:54.753Z,17.50
2023-11-27T12:50:13.170Z,18.00
2023-11-27T12:54:41.756Z,21.90
2023-11-27T12:59:26.402Z,18.10
2023-11-27T13:03:52.011Z,21.60
2023-11-27T13:08:01.389Z,19.60
2023-11-27T13:12:47.929Z,18.90
2023-11-27T13:17:14.202Z,19.70
2023-11-27T13:21:20.361Z,17.50
2023-11-27T13:26:05.835Z,20.70
2023-11-27T13:30:58.637Z,21.30
2023-11-27T13:35:45.948Z,19.30
2023-11-27T13:40:10.547Z,27.20
2023-11-27T13:49:16.482Z,26.20
2023-11-27T13:53:43.250Z,26.30
2023-11-27T13:58:26.021Z,22.90
2023-11-27T14:03:06.631Z,27.50
2023-11-27T14:07:39.509Z,25.90
2023-11-27T14:12:24.517Z,24.80
2023-11-27T14:16:52.856Z,30.90
2023-11-27T14:21:15.578Z,26.60
2023-11-27T14:25:40.630Z,41.60
2023-11-27T14:29:53.666Z,48.60
2023-11-27T14:34:10.591Z,41.60
2023-11-27T14:38:37.029Z,47.60
2023-11-27T14:43:24.173Z,30.90
2023-11-27T14:47:48.012Z,22.70
2023-11-27T14:51:52.889Z,22.70
2023-11-27T14:55:56.887Z,16.50
2023-11-27T15:04:25.037Z,19.80
2023-11-27T15:08:22.506Z,20.90
2023-11-27T15:12:31.863Z,21.70
2023-11-27T15:17:15.040Z,20.00
2023-11-27T15:21:40.019Z,15.10
2023-11-27T15:26:05.924Z,27.60
2023-11-27T15:30:38.535Z,31.60
2023-11-27T15:35:25.331Z,111.50
2023-11-27T15:39:50.461Z,100.10
2023-11-27T15:44:03.408Z,44.60
2023-11-27T15:48:13.694Z,21.10
2023-11-27T15:52:35.465Z,21.80
2023-11-27T15:56:46.151Z,24.30
2023-11-27T16:01:17.460Z,23.90
2023-11-27T16:09:23.224Z,45.60
2023-11-27T16:13:56.372Z,30.10
2023-11-27T16:18:38.262Z,16.70
2023-11-27T16:23:03.692Z,23.80
2023-11-27T16:27:41.553Z,20.50
2023-11-27T16:32:03.384Z,15.00
2023-11-27T16:36:12.687Z,15.30
2023-11-27T16:40:55.262Z,10.40
2023-11-27T16:45:01.345Z,12.60
2023-11-27T16:49:24.108Z,8.60
2023-11-27T16:53:48.081Z,7.10
2023-11-27T16:58:10.900Z,10.60
2023-11-27T17:02:43.588Z,10.60
2023-11-27T17:06:33.380Z,7.10
2023-11-27T17:11:03.275Z,10.30
2023-11-27T17:15:07.156Z,12.20
2023-11-27T17:19:31.333Z,12.80
2023-11-27T17:23:39.035Z,8.90
2023-11-27T17:27:41.684Z,9.10
2023-11-27T17:32:05.711Z,7.70
2023-11-27T17:36:44.082Z,10.20
2023-11-27T17:41:17.598Z,12.10
2023-11-27T17:45:30.660Z,12.00
2023-11-27T17:49:53.523Z,15.10
2023-11-27T17:58:03.950Z,6.00
2023-11-27T18:02:27.957Z,8.40
2023-11-27T18:09:46.421Z,11.80
2023-11-27T18:14:12.399Z,9.00
2023-11-27T18:18:45.231Z,9.80
2023-11-27T18:23:30.270Z,7.30
2023-11-27T18:27:59.104Z,8.90
2023-11-27T18:32:23.799Z,9.80
2023-11-27T18:36:28.966Z,8.70
2023-11-27T18:41:00.887Z,8.90
2023-11-27T18:45:40.227Z,8.90
2023-11-27T18:50:08.576Z,10.20
2023-11-27T18:54:42.873Z,9.90
2023-11-27T18:59:28.782Z,8.90
2023-11-27T19:04:00.719Z,6.20
2023-11-27T19:08:29.445Z,7.60
2023-11-27T19:12:57.285Z,7.90
2023-11-27T19:17:01.797Z,8.20
2023-11-27T19:21:14.522Z,8.30
2023-11-27T19:25:39.730Z,5.90
2023-11-27T19:34:46.841Z,12.60
2023-11-27T19:39:26.722Z,8.70
2023-11-27T19:43:59.979Z,6.70
2023-11-27T19:48:44.293Z,9.00
2023-11-27T19:53:23.453Z,9.10
2023-11-27T19:57:48.413Z,7.90
2023-11-27T20:02:13.163Z,6.00
2023-11-27T20:06:41.011Z,7.60
2023-11-27T20:10:55.917Z,6.10
2023-11-27T20:15:43.650Z,8.70
2023-11-27T20:20:07.673Z,8.40
2023-11-27T20:24:49.060Z,12.50
2023-11-27T20:29:13.963Z,7.30
2023-11-27T20:34:16.799Z,4.90
2023-11-27T20:38:26.133Z,5.40
2023-11-27T20:42:33.892Z,7.00
2023-11-27T20:46:41.213Z,9.90
2023-11-27T20:51:25.479Z,10.40
2023-11-27T20:55:59.091Z,9.90
2023-11-27T21:00:04.381Z,7.00
2023-11-27T21:04:50.004Z,6.60
2023-11-27T21:09:15.746Z,4.80
2023-11-27T21:14:00.423Z,4.40
2023-11-27T21:18:42.964Z,5.60
2023-11-27T21:27:18.125Z,5.90
2023-11-27T21:31:29.966Z,8.10
2023-11-27T21:35:58.164Z,5.10
2023-11-27T21:40:21.479Z,6.20
2023-11-27T21:44:45.850Z,7.10
2023-11-27T21:49:10.258Z,5.20
2023-11-27T21:53:26.411Z,6.60
2023-11-27T21:57:51.076Z,8.00
2023-11-27T22:02:15.832Z,7.90
2023-11-27T22:06:40.800Z,4.20
2023-11-27T22:11:06.522Z,6.50
2023-11-27T22:15:30.974Z,6.90
2023-11-27T22:19:35.328Z,6.00
2023-11-27T22:24:19.632Z,6.10
2023-11-27T22:28:41.502Z,4.70
2023-11-27T22:32:58.797Z,5.10
2023-11-27T22:37:02.925Z,5.60
2023-11-27T22:41:09.455Z,5.10
2023-11-27T22:45:13.115Z,7.40
2023-11-27T22:49:39.148Z,6.90
2023-11-27T22:54:00.740Z,5.20
2023-11-27T22:58:02.079Z,5.60
2023-11-27T23:02:47.004Z,3.30
2023-11-27T23:07:12.381Z,5.40
2023-11-27T23:11:27.208Z,5.20
2023-11-27T23:15:39.066Z,4.50
2023-11-27T23:20:23.246Z,4.70
2023-11-27T23:24:31.196Z,6.50
2023-11-27T23:29:10.600Z,6.30
2023-11-27T23:33:55.780Z,8.80
2023-11-27T23:38:04.258Z,10.80
2023-11-27T23:42:06.385Z,11.30
2023-11-27T23:46:51.987Z,24.10
2023-11-27T23:51:12.385Z,27.40
2023-11-27T23:55:57.458Z,42.10
